sensor_id;sensor_type;location;lat;lon;timestamp;P1;durP1;ratioP1;P2;durP2;ratioP2
1336;SDS011;662;48.814;9.318;2022-11-20T00:00:53;12.63;;;10.60;;
1336;SDS011;662;48.814;9.318;2022-11-20T00:03:19;13.00;;;11.10;;
1336;SDS011;662;48.814;9.318;2022-11-20T00:05:45;12.87;;;11.47;;
1336;SDS011;662;48.814;9.318;2022-11-20T00:08:11;12.90;;;10.67;;
1336;SDS011;662;48.814;9.318;2022-11-20T00:10:37;12.23;;;10.33;;
1336;SDS011;662;48.814;9.318;2022-11-20T00:13:04;13.63;;;10.13;;
1336;SDS011;662;48.814;9.318;2022-11-20T00:15:29;12.13;;;10.83;;
1336;SDS011;662;48.814;9.318;2022-11-20T00:17:55;15.57;;;11.60;;
1336;SDS011;662;48.814;9.318;2022-11-20T00:20:21;13.90;;;11.00;;
1336;SDS011;662;48.814;9.318;2022-11-20T00:22:46;14.93;;;10.87;;
1336;SDS011;662;48.814;9.318;2022-11-20T00:25:12;13.10;;;11.70;;
1336;SDS011;662;48.814;9.318;2022-11-20T00:27:38;14.50;;;10.60;;
1336;SDS011;662;48.814;9.318;2022-11-20T00:30:04;15.43;;;11.97;;
1336;SDS011;662;48.814;9.318;2022-11-20T00:32:30;13.77;;;12.37;;
1336;SDS011;662;48.814;9.318;2022-11-20T00:34:56;12.60;;;11.10;;
1336;SDS011;662;48.814;9.318;2022-11-20T00:37:21;14.57;;;11.60;;
1336;SDS011;662;48.814;9.318;2022-11-20T00:39:47;13.87;;;11.63;;
1336;SDS011;662;48.814;9.318;2022-11-20T00:42:13;14.00;;;12.60;;
1336;SDS011;662;48.814;9.318;2022-11-20T00:44:38;14.10;;;11.80;;
1336;SDS011;662;48.814;9.318;2022-11-20T00:47:04;15.80;;;11.60;;
1336;SDS011;662;48.814;9.318;2022-11-20T00:49:30;17.10;;;11.73;;
1336;SDS011;662;48.814;9.318;2022-11-20T00:51:55;12.33;;;10.70;;
1336;SDS011;662;48.814;9.318;2022-11-20T00:54:21;12.87;;;11.57;;
1336;SDS011;662;48.814;9.318;2022-11-20T00:56:46;13.80;;;11.93;;
1336;SDS011;662;48.814;9.318;2022-11-20T00:59:12;13.83;;;12.03;;
1336;SDS011;662;48.814;9.318;2022-11-20T01:01:38;13.70;;;11.13;;
1336;SDS011;662;48.814;9.318;2022-11-20T01:04:03;13.73;;;12.33;;
1336;SDS011;662;48.814;9.318;2022-11-20T01:06:30;13.23;;;11.50;;
1336;SDS011;662;48.814;9.318;2022-11-20T01:08:58;13.10;;;11.80;;
1336;SDS011;662;48.814;9.318;2022-11-20T01:11:27;12.77;;;11.17;;
1336;SDS011;662;48.814;9.318;2022-11-20T01:13:55;13.33;;;11.63;;
1336;SDS011;662;48.814;9.318;2022-11-20T01:16:23;11.83;;;10.70;;
1336;SDS011;662;48.814;9.318;2022-11-20T01:18:51;11.50;;;10.30;;
1336;SDS011;662;48.814;9.318;2022-11-20T01:21:22;11.93;;;10.73;;
1336;SDS011;662;48.814;9.318;2022-11-20T01:23:53;12.70;;;11.40;;
1336;SDS011;662;48.814;9.318;2022-11-20T01:26:20;14.47;;;10.97;;
1336;SDS011;662;48.814;9.318;2022-11-20T01:28:47;12.77;;;11.40;;
1336;SDS011;662;48.814;9.318;2022-11-20T01:31:17;11.53;;;10.33;;
1336;SDS011;662;48.814;9.318;2022-11-20T01:33:45;13.63;;;11.30;;
1336;SDS011;662;48.814;9.318;2022-11-20T01:36:12;11.33;;;10.13;;
1336;SDS011;662;48.814;9.318;2022-11-20T01:38:39;11.03;;;9.70;;
1336;SDS011;662;48.814;9.318;2022-11-20T01:41:05;12.10;;;9.93;;
1336;SDS011;662;48.814;9.318;2022-11-20T01:43:32;12.63;;;10.00;;
1336;SDS011;662;48.814;9.318;2022-11-20T01:46:02;12.50;;;11.20;;
1336;SDS011;662;48.814;9.318;2022-11-20T01:48:38;11.43;;;9.93;;
1336;SDS011;662;48.814;9.318;2022-11-20T01:51:40;13.00;;;11.60;;
1336;SDS011;662;48.814;9.318;2022-11-20T01:54:10;12.80;;;11.37;;
1336;SDS011;662;48.814;9.318;2022-11-20T01:56:40;14.20;;;11.77;;
1336;SDS011;662;48.814;9.318;2022-11-20T01:59:09;12.90;;;11.10;;
1336;SDS011;662;48.814;9.318;2022-11-20T02:01:38;13.33;;;10.73;;
1336;SDS011;662;48.814;9.318;2022-11-20T02:04:04;12.10;;;10.43;;
1336;SDS011;662;48.814;9.318;2022-11-20T02:06:34;12.00;;;10.33;;
1336;SDS011;662;48.814;9.318;2022-11-20T02:09:03;12.23;;;10.93;;
1336;SDS011;662;48.814;9.318;2022-11-20T02:11:30;12.17;;;10.47;;
1336;SDS011;662;48.814;9.318;2022-11-20T02:13:56;14.13;;;12.00;;
1336;SDS011;662;48.814;9.318;2022-11-20T02:16:26;10.90;;;9.80;;
1336;SDS011;662;48.814;9.318;2022-11-20T02:18:55;10.20;;;9.17;;
1336;SDS011;662;48.814;9.318;2022-11-20T02:24:06;8.00;;;7.07;;
1336;SDS011;662;48.814;9.318;2022-11-20T02:26:38;6.93;;;6.33;;
1336;SDS011;662;48.814;9.318;2022-11-20T02:29:25;5.90;;;5.40;;
1336;SDS011;662;48.814;9.318;2022-11-20T02:31:55;7.50;;;5.77;;
1336;SDS011;662;48.814;9.318;2022-11-20T02:34:23;5.70;;;5.13;;
1336;SDS011;662;48.814;9.318;2022-11-20T02:36:49;5.47;;;4.33;;
1336;SDS011;662;48.814;9.318;2022-11-20T02:39:17;5.20;;;4.70;;
1336;SDS011;662;48.814;9.318;2022-11-20T02:41:45;5.20;;;4.70;;
1336;SDS011;662;48.814;9.318;2022-11-20T02:44:11;7.77;;;4.97;;
1336;SDS011;662;48.814;9.318;2022-11-20T02:46:37;5.73;;;5.17;;
1336;SDS011;662;48.814;9.318;2022-11-20T02:49:03;6.23;;;5.60;;
1336;SDS011;662;48.814;9.318;2022-11-20T02:51:29;6.40;;;5.80;;
1336;SDS011;662;48.814;9.318;2022-11-20T02:53:55;7.77;;;6.97;;
1336;SDS011;662;48.814;9.318;2022-11-20T02:56:21;7.13;;;6.43;;
1336;SDS011;662;48.814;9.318;2022-11-20T02:58:47;5.53;;;4.27;;
1336;SDS011;662;48.814;9.318;2022-11-20T03:01:13;4.53;;;4.17;;
1336;SDS011;662;48.814;9.318;2022-11-20T03:03:39;4.70;;;4.10;;
1336;SDS011;662;48.814;9.318;2022-11-20T03:06:04;3.93;;;3.60;;
1336;SDS011;662;48.814;9.318;2022-11-20T03:08:30;6.80;;;4.20;;
1336;SDS011;662;48.814;9.318;2022-11-20T03:10:56;4.37;;;3.97;;
1336;SDS011;662;48.814;9.318;2022-11-20T03:13:26;4.70;;;4.03;;
1336;SDS011;662;48.814;9.318;2022-11-20T03:15:52;3.70;;;3.40;;
1336;SDS011;662;48.814;9.318;2022-11-20T03:18:17;3.80;;;3.50;;
1336;SDS011;662;48.814;9.318;2022-11-20T03:20:43;4.33;;;3.97;;
1336;SDS011;662;48.814;9.318;2022-11-20T03:23:08;4.20;;;3.90;;
1336;SDS011;662;48.814;9.318;2022-11-20T03:25:34;4.50;;;4.10;;
1336;SDS011;662;48.814;9.318;2022-11-20T03:28:00;3.97;;;3.60;;
1336;SDS011;662;48.814;9.318;2022-11-20T03:30:26;4.23;;;3.83;;
1336;SDS011;662;48.814;9.318;2022-11-20T03:32:52;4.40;;;3.97;;
1336;SDS011;662;48.814;9.318;2022-11-20T03:35:18;4.60;;;4.20;;
1336;SDS011;662;48.814;9.318;2022-11-20T03:37:44;5.33;;;4.10;;
1336;SDS011;662;48.814;9.318;2022-11-20T03:40:11;4.50;;;4.10;;
1336;SDS011;662;48.814;9.318;2022-11-20T03:42:36;6.40;;;3.80;;
1336;SDS011;662;48.814;9.318;2022-11-20T03:45:15;4.70;;;4.20;;
1336;SDS011;662;48.814;9.318;2022-11-20T03:47:42;5.00;;;4.50;;
1336;SDS011;662;48.814;9.318;2022-11-20T03:50:09;4.83;;;4.43;;
1336;SDS011;662;48.814;9.318;2022-11-20T03:52:37;5.67;;;4.37;;
1336;SDS011;662;48.814;9.318;2022-11-20T03:55:03;4.30;;;4.00;;
1336;SDS011;662;48.814;9.318;2022-11-20T03:57:29;4.87;;;4.37;;
1336;SDS011;662;48.814;9.318;2022-11-20T03:59:55;4.73;;;4.30;;
1336;SDS011;662;48.814;9.318;2022-11-20T04:02:21;4.87;;;4.20;;
1336;SDS011;662;48.814;9.318;2022-11-20T04:04:46;4.63;;;4.23;;
1336;SDS011;662;48.814;9.318;2022-11-20T04:07:12;5.27;;;4.27;;
1336;SDS011;662;48.814;9.318;2022-11-20T04:09:38;4.27;;;3.93;;
1336;SDS011;662;48.814;9.318;2022-11-20T04:12:03;6.47;;;4.40;;
1336;SDS011;662;48.814;9.318;2022-11-20T04:14:29;5.83;;;4.17;;
1336;SDS011;662;48.814;9.318;2022-11-20T04:16:55;4.10;;;3.80;;
1336;SDS011;662;48.814;9.318;2022-11-20T04:19:20;4.70;;;4.30;;
1336;SDS011;662;48.814;9.318;2022-11-20T04:21:46;5.20;;;4.70;;
1336;SDS011;662;48.814;9.318;2022-11-20T04:24:12;4.70;;;4.30;;
1336;SDS011;662;48.814;9.318;2022-11-20T04:26:38;4.00;;;3.60;;
1336;SDS011;662;48.814;9.318;2022-11-20T04:29:04;4.17;;;3.87;;
1336;SDS011;662;48.814;9.318;2022-11-20T04:31:31;4.57;;;4.10;;
1336;SDS011;662;48.814;9.318;2022-11-20T04:34:01;5.23;;;4.50;;
1336;SDS011;662;48.814;9.318;2022-11-20T04:36:29;5.83;;;3.70;;
1336;SDS011;662;48.814;9.318;2022-11-20T04:38:56;4.73;;;4.30;;
1336;SDS011;662;48.814;9.318;2022-11-20T04:41:24;4.17;;;3.80;;
1336;SDS011;662;48.814;9.318;2022-11-20T04:43:53;4.90;;;4.00;;
1336;SDS011;662;48.814;9.318;2022-11-20T04:46:24;5.53;;;4.00;;
1336;SDS011;662;48.814;9.318;2022-11-20T04:48:52;3.80;;;3.50;;
1336;SDS011;662;48.814;9.318;2022-11-20T04:51:18;4.70;;;3.53;;
1336;SDS011;662;48.814;9.318;2022-11-20T04:53:43;5.20;;;4.20;;
1336;SDS011;662;48.814;9.318;2022-11-20T04:56:10;4.87;;;3.90;;
1336;SDS011;662;48.814;9.318;2022-11-20T04:58:37;4.83;;;4.00;;
1336;SDS011;662;48.814;9.318;2022-11-20T05:01:07;4.47;;;4.03;;
1336;SDS011;662;48.814;9.318;2022-11-20T05:03:34;4.20;;;3.80;;
1336;SDS011;662;48.814;9.318;2022-11-20T05:06:00;5.00;;;3.80;;
1336;SDS011;662;48.814;9.318;2022-11-20T05:08:27;4.33;;;4.03;;
1336;SDS011;662;48.814;9.318;2022-11-20T05:10:53;4.33;;;4.00;;
1336;SDS011;662;48.814;9.318;2022-11-20T05:13:19;4.50;;;3.80;;
1336;SDS011;662;48.814;9.318;2022-11-20T05:15:44;3.83;;;3.53;;
1336;SDS011;662;48.814;9.318;2022-11-20T05:18:10;4.33;;;3.93;;
1336;SDS011;662;48.814;9.318;2022-11-20T05:20:36;4.70;;;4.17;;
1336;SDS011;662;48.814;9.318;2022-11-20T05:23:01;4.03;;;3.60;;
1336;SDS011;662;48.814;9.318;2022-11-20T05:25:27;4.77;;;4.10;;
1336;SDS011;662;48.814;9.318;2022-11-20T05:27:53;4.00;;;3.63;;
1336;SDS011;662;48.814;9.318;2022-11-20T05:30:19;4.40;;;4.00;;
1336;SDS011;662;48.814;9.318;2022-11-20T05:32:44;3.90;;;3.50;;
1336;SDS011;662;48.814;9.318;2022-11-20T05:35:10;3.93;;;3.63;;
1336;SDS011;662;48.814;9.318;2022-11-20T05:37:35;3.73;;;3.43;;
1336;SDS011;662;48.814;9.318;2022-11-20T05:40:01;4.40;;;4.00;;
1336;SDS011;662;48.814;9.318;2022-11-20T05:42:30;4.27;;;3.97;;
1336;SDS011;662;48.814;9.318;2022-11-20T05:44:56;3.67;;;3.30;;
1336;SDS011;662;48.814;9.318;2022-11-20T05:47:27;4.07;;;3.77;;
1336;SDS011;662;48.814;9.318;2022-11-20T05:49:53;3.87;;;3.57;;
1336;SDS011;662;48.814;9.318;2022-11-20T05:52:19;4.40;;;4.00;;
1336;SDS011;662;48.814;9.318;2022-11-20T05:54:45;4.23;;;3.93;;
1336;SDS011;662;48.814;9.318;2022-11-20T05:57:11;4.40;;;3.60;;
1336;SDS011;662;48.814;9.318;2022-11-20T05:59:36;4.40;;;4.00;;
1336;SDS011;662;48.814;9.318;2022-11-20T06:02:02;3.93;;;3.50;;
1336;SDS011;662;48.814;9.318;2022-11-20T06:04:28;4.87;;;4.43;;
1336;SDS011;662;48.814;9.318;2022-11-20T06:06:53;4.43;;;3.93;;
1336;SDS011;662;48.814;9.318;2022-11-20T06:09:19;5.50;;;4.27;;
1336;SDS011;662;48.814;9.318;2022-11-20T06:11:44;3.90;;;3.50;;
1336;SDS011;662;48.814;9.318;2022-11-20T06:14:10;6.10;;;4.30;;
1336;SDS011;662;48.814;9.318;2022-11-20T06:16:36;3.93;;;3.63;;
1336;SDS011;662;48.814;9.318;2022-11-20T06:19:01;5.40;;;3.27;;
1336;SDS011;662;48.814;9.318;2022-11-20T06:21:27;3.77;;;3.47;;
1336;SDS011;662;48.814;9.318;2022-11-20T06:23:53;4.20;;;3.80;;
1336;SDS011;662;48.814;9.318;2022-11-20T06:26:20;3.83;;;3.53;;
1336;SDS011;662;48.814;9.318;2022-11-20T06:28:47;3.90;;;3.47;;
1336;SDS011;662;48.814;9.318;2022-11-20T06:31:14;3.23;;;3.03;;
1336;SDS011;662;48.814;9.318;2022-11-20T06:33:41;4.17;;;3.23;;
1336;SDS011;662;48.814;9.318;2022-11-20T06:36:07;4.00;;;3.30;;
1336;SDS011;662;48.814;9.318;2022-11-20T06:38:35;4.13;;;3.73;;
1336;SDS011;662;48.814;9.318;2022-11-20T06:41:02;5.03;;;3.10;;
1336;SDS011;662;48.814;9.318;2022-11-20T06:43:28;5.37;;;3.50;;
1336;SDS011;662;48.814;9.318;2022-11-20T06:45:55;3.67;;;3.27;;
1336;SDS011;662;48.814;9.318;2022-11-20T06:48:22;3.90;;;3.53;;
1336;SDS011;662;48.814;9.318;2022-11-20T06:50:53;5.00;;;3.30;;
1336;SDS011;662;48.814;9.318;2022-11-20T06:53:18;5.03;;;3.70;;
1336;SDS011;662;48.814;9.318;2022-11-20T06:55:45;4.37;;;3.27;;
1336;SDS011;662;48.814;9.318;2022-11-20T06:58:12;3.57;;;3.20;;
1336;SDS011;662;48.814;9.318;2022-11-20T07:00:38;5.30;;;3.33;;
1336;SDS011;662;48.814;9.318;2022-11-20T07:03:08;3.73;;;2.80;;
1336;SDS011;662;48.814;9.318;2022-11-20T07:05:35;3.50;;;3.03;;
1336;SDS011;662;48.814;9.318;2022-11-20T07:08:01;3.83;;;3.10;;
1336;SDS011;662;48.814;9.318;2022-11-20T07:10:27;3.60;;;2.93;;
1336;SDS011;662;48.814;9.318;2022-11-20T07:12:53;3.23;;;2.97;;
1336;SDS011;662;48.814;9.318;2022-11-20T07:15:19;2.80;;;2.60;;
1336;SDS011;662;48.814;9.318;2022-11-20T07:17:47;3.20;;;3.00;;
1336;SDS011;662;48.814;9.318;2022-11-20T07:20:13;3.73;;;2.97;;
1336;SDS011;662;48.814;9.318;2022-11-20T07:22:39;3.10;;;2.90;;
1336;SDS011;662;48.814;9.318;2022-11-20T07:25:05;3.70;;;3.33;;
1336;SDS011;662;48.814;9.318;2022-11-20T07:27:32;3.50;;;3.20;;
1336;SDS011;662;48.814;9.318;2022-11-20T07:29:57;3.67;;;3.33;;
1336;SDS011;662;48.814;9.318;2022-11-20T07:32:23;3.33;;;3.13;;
1336;SDS011;662;48.814;9.318;2022-11-20T07:34:48;4.30;;;3.90;;
1336;SDS011;662;48.814;9.318;2022-11-20T07:37:14;3.30;;;3.00;;
1336;SDS011;662;48.814;9.318;2022-11-20T07:39:40;3.80;;;3.50;;
1336;SDS011;662;48.814;9.318;2022-11-20T07:42:06;3.40;;;3.10;;
1336;SDS011;662;48.814;9.318;2022-11-20T07:44:32;2.93;;;2.70;;
1336;SDS011;662;48.814;9.318;2022-11-20T07:46:58;3.63;;;2.90;;
1336;SDS011;662;48.814;9.318;2022-11-20T07:49:24;3.03;;;2.80;;
1336;SDS011;662;48.814;9.318;2022-11-20T07:51:50;3.13;;;2.83;;
1336;SDS011;662;48.814;9.318;2022-11-20T07:54:18;3.57;;;2.90;;
1336;SDS011;662;48.814;9.318;2022-11-20T07:56:43;2.87;;;2.67;;
1336;SDS011;662;48.814;9.318;2022-11-20T07:59:09;3.07;;;2.87;;
1336;SDS011;662;48.814;9.318;2022-11-20T08:01:36;3.10;;;2.90;;
1336;SDS011;662;48.814;9.318;2022-11-20T08:04:03;3.33;;;3.03;;
1336;SDS011;662;48.814;9.318;2022-11-20T08:06:28;2.90;;;2.53;;
1336;SDS011;662;48.814;9.318;2022-11-20T08:08:54;3.77;;;2.40;;
1336;SDS011;662;48.814;9.318;2022-11-20T08:11:20;2.90;;;2.70;;
1336;SDS011;662;48.814;9.318;2022-11-20T08:14:03;2.90;;;2.70;;
1336;SDS011;662;48.814;9.318;2022-11-20T08:16:48;3.60;;;3.03;;
1336;SDS011;662;48.814;9.318;2022-11-20T08:19:14;2.70;;;2.47;;
1336;SDS011;662;48.814;9.318;2022-11-20T08:21:43;2.80;;;2.60;;
1336;SDS011;662;48.814;9.318;2022-11-20T08:24:09;3.00;;;2.70;;
1336;SDS011;662;48.814;9.318;2022-11-20T08:26:36;2.70;;;2.50;;
1336;SDS011;662;48.814;9.318;2022-11-20T08:29:03;2.87;;;2.50;;
1336;SDS011;662;48.814;9.318;2022-11-20T08:31:30;2.83;;;2.63;;
1336;SDS011;662;48.814;9.318;2022-11-20T08:33:56;2.73;;;2.50;;
1336;SDS011;662;48.814;9.318;2022-11-20T08:36:22;2.73;;;2.53;;
1336;SDS011;662;48.814;9.318;2022-11-20T08:38:49;2.50;;;2.30;;
1336;SDS011;662;48.814;9.318;2022-11-20T08:41:16;2.70;;;2.50;;
1336;SDS011;662;48.814;9.318;2022-11-20T08:43:56;2.87;;;2.47;;
1336;SDS011;662;48.814;9.318;2022-11-20T08:46:27;2.60;;;2.17;;
1336;SDS011;662;48.814;9.318;2022-11-20T08:48:59;2.73;;;2.50;;
1336;SDS011;662;48.814;9.318;2022-11-20T08:51:24;2.80;;;2.37;;
1336;SDS011;662;48.814;9.318;2022-11-20T08:53:50;2.43;;;2.10;;
1336;SDS011;662;48.814;9.318;2022-11-20T08:56:16;2.37;;;2.20;;
1336;SDS011;662;48.814;9.318;2022-11-20T08:58:42;3.43;;;2.70;;
1336;SDS011;662;48.814;9.318;2022-11-20T09:01:08;2.00;;;1.90;;
1336;SDS011;662;48.814;9.318;2022-11-20T09:03:35;2.10;;;2.00;;
1336;SDS011;662;48.814;9.318;2022-11-20T09:06:01;2.63;;;1.90;;
1336;SDS011;662;48.814;9.318;2022-11-20T09:08:29;2.07;;;1.97;;
1336;SDS011;662;48.814;9.318;2022-11-20T09:10:55;4.10;;;2.10;;
1336;SDS011;662;48.814;9.318;2022-11-20T09:13:22;2.20;;;1.77;;
1336;SDS011;662;48.814;9.318;2022-11-20T09:15:54;1.80;;;1.70;;
1336;SDS011;662;48.814;9.318;2022-11-20T09:18:22;1.80;;;1.70;;
1336;SDS011;662;48.814;9.318;2022-11-20T09:20:48;1.80;;;1.70;;
1336;SDS011;662;48.814;9.318;2022-11-20T09:23:14;2.30;;;1.70;;
1336;SDS011;662;48.814;9.318;2022-11-20T09:25:40;1.47;;;1.37;;
1336;SDS011;662;48.814;9.318;2022-11-20T09:28:07;1.93;;;1.77;;
1336;SDS011;662;48.814;9.318;2022-11-20T09:30:32;2.03;;;1.93;;
1336;SDS011;662;48.814;9.318;2022-11-20T09:32:58;2.27;;;1.50;;
1336;SDS011;662;48.814;9.318;2022-11-20T09:35:24;1.77;;;1.67;;
1336;SDS011;662;48.814;9.318;2022-11-20T09:37:49;1.57;;;1.47;;
1336;SDS011;662;48.814;9.318;2022-11-20T09:40:28;1.40;;;1.30;;
1336;SDS011;662;48.814;9.318;2022-11-20T09:42:58;1.73;;;1.63;;
1336;SDS011;662;48.814;9.318;2022-11-20T09:45:37;1.63;;;1.53;;
1336;SDS011;662;48.814;9.318;2022-11-20T09:48:17;1.73;;;1.50;;
1336;SDS011;662;48.814;9.318;2022-11-20T09:56:00;1.60;;;1.50;;
1336;SDS011;662;48.814;9.318;2022-11-20T09:58:31;1.83;;;1.73;;
1336;SDS011;662;48.814;9.318;2022-11-20T10:01:13;1.73;;;1.63;;
1336;SDS011;662;48.814;9.318;2022-11-20T10:03:42;1.30;;;1.20;;
1336;SDS011;662;48.814;9.318;2022-11-20T10:06:17;1.20;;;1.10;;
1336;SDS011;662;48.814;9.318;2022-11-20T10:09:49;1.80;;;1.10;;
1336;SDS011;662;48.814;9.318;2022-11-20T10:25:19;1.47;;;1.37;;
1336;SDS011;662;48.814;9.318;2022-11-20T10:27:50;1.63;;;1.53;;
1336;SDS011;662;48.814;9.318;2022-11-20T10:30:20;1.30;;;1.30;;
1336;SDS011;662;48.814;9.318;2022-11-20T10:32:51;1.83;;;1.63;;
1336;SDS011;662;48.814;9.318;2022-11-20T10:38:18;1.87;;;1.77;;
1336;SDS011;662;48.814;9.318;2022-11-20T10:40:59;1.40;;;1.30;;
1336;SDS011;662;48.814;9.318;2022-11-20T10:43:46;3.00;;;1.63;;
1336;SDS011;662;48.814;9.318;2022-11-20T10:46:14;1.40;;;1.30;;
1336;SDS011;662;48.814;9.318;2022-11-20T10:48:43;1.77;;;1.67;;
1336;SDS011;662;48.814;9.318;2022-11-20T10:56:56;1.00;;;1.00;;
1336;SDS011;662;48.814;9.318;2022-11-20T11:02:22;1.40;;;1.30;;
1336;SDS011;662;48.814;9.318;2022-11-20T11:04:50;1.37;;;1.27;;
1336;SDS011;662;48.814;9.318;2022-11-20T11:10:22;1.77;;;1.50;;
1336;SDS011;662;48.814;9.318;2022-11-20T11:12:53;2.20;;;1.70;;
1336;SDS011;662;48.814;9.318;2022-11-20T11:17:55;1.60;;;1.50;;
1336;SDS011;662;48.814;9.318;2022-11-20T11:20:22;1.70;;;1.60;;
1336;SDS011;662;48.814;9.318;2022-11-20T11:22:51;1.53;;;1.43;;
1336;SDS011;662;48.814;9.318;2022-11-20T11:25:19;2.53;;;1.77;;
1336;SDS011;662;48.814;9.318;2022-11-20T11:27:46;2.73;;;2.00;;
1336;SDS011;662;48.814;9.318;2022-11-20T11:30:14;2.10;;;2.00;;
1336;SDS011;662;48.814;9.318;2022-11-20T11:32:41;2.03;;;1.60;;
1336;SDS011;662;48.814;9.318;2022-11-20T11:35:28;1.90;;;1.80;;
1336;SDS011;662;48.814;9.318;2022-11-20T11:38:04;2.07;;;1.70;;
1336;SDS011;662;48.814;9.318;2022-11-20T11:40:35;2.10;;;1.90;;
1336;SDS011;662;48.814;9.318;2022-11-20T11:43:07;2.13;;;1.80;;
1336;SDS011;662;48.814;9.318;2022-11-20T11:46:02;1.80;;;1.70;;
1336;SDS011;662;48.814;9.318;2022-11-20T11:48:57;2.60;;;1.87;;
1336;SDS011;662;48.814;9.318;2022-11-20T11:51:26;1.60;;;1.50;;
1336;SDS011;662;48.814;9.318;2022-11-20T11:54:16;2.00;;;1.83;;
1336;SDS011;662;48.814;9.318;2022-11-20T11:56:48;2.33;;;1.70;;
1336;SDS011;662;48.814;9.318;2022-11-20T12:05:47;2.20;;;2.00;;
1336;SDS011;662;48.814;9.318;2022-11-20T12:16:39;1.97;;;1.87;;
1336;SDS011;662;48.814;9.318;2022-11-20T12:19:12;3.33;;;2.23;;
1336;SDS011;662;48.814;9.318;2022-11-20T12:24:20;3.70;;;2.20;;
1336;SDS011;662;48.814;9.318;2022-11-20T12:29:57;2.67;;;2.10;;
1336;SDS011;662;48.814;9.318;2022-11-20T12:37:45;2.00;;;1.63;;
1336;SDS011;662;48.814;9.318;2022-11-20T12:46:08;2.23;;;1.70;;
1336;SDS011;662;48.814;9.318;2022-11-20T12:48:41;2.50;;;1.60;;
1336;SDS011;662;48.814;9.318;2022-11-20T13:08:14;4.50;;;3.00;;
1336;SDS011;662;48.814;9.318;2022-11-20T13:13:43;3.30;;;1.43;;
1336;SDS011;662;48.814;9.318;2022-11-20T13:16:13;2.20;;;1.70;;
1336;SDS011;662;48.814;9.318;2022-11-20T13:19:01;3.57;;;1.30;;
1336;SDS011;662;48.814;9.318;2022-11-20T13:21:35;1.63;;;1.00;;
1336;SDS011;662;48.814;9.318;2022-11-20T13:24:04;3.03;;;1.10;;
1336;SDS011;662;48.814;9.318;2022-11-20T13:26:30;1.33;;;1.23;;
1336;SDS011;662;48.814;9.318;2022-11-20T13:29:02;2.03;;;1.53;;
1336;SDS011;662;48.814;9.318;2022-11-20T13:31:35;2.17;;;1.40;;
1336;SDS011;662;48.814;9.318;2022-11-20T13:34:07;1.93;;;1.23;;
1336;SDS011;662;48.814;9.318;2022-11-20T13:36:37;2.47;;;1.50;;
1336;SDS011;662;48.814;9.318;2022-11-20T13:39:23;2.10;;;1.43;;
1336;SDS011;662;48.814;9.318;2022-11-20T13:41:55;2.77;;;1.57;;
1336;SDS011;662;48.814;9.318;2022-11-20T13:47:16;3.60;;;2.40;;
1336;SDS011;662;48.814;9.318;2022-11-20T13:49:49;5.60;;;2.23;;
1336;SDS011;662;48.814;9.318;2022-11-20T13:55:29;1.90;;;1.33;;
1336;SDS011;662;48.814;9.318;2022-11-20T13:58:19;1.73;;;1.37;;
1336;SDS011;662;48.814;9.318;2022-11-20T14:01:08;3.07;;;1.17;;
1336;SDS011;662;48.814;9.318;2022-11-20T14:03:35;3.13;;;1.33;;
1336;SDS011;662;48.814;9.318;2022-11-20T14:06:02;1.20;;;1.10;;
1336;SDS011;662;48.814;9.318;2022-11-20T14:08:40;3.20;;;1.87;;
1336;SDS011;662;48.814;9.318;2022-11-20T14:11:15;2.63;;;1.83;;
1336;SDS011;662;48.814;9.318;2022-11-20T14:16:36;1.70;;;1.30;;
1336;SDS011;662;48.814;9.318;2022-11-20T14:21:49;1.77;;;1.50;;
1336;SDS011;662;48.814;9.318;2022-11-20T14:24:22;2.73;;;1.60;;
1336;SDS011;662;48.814;9.318;2022-11-20T14:26:50;2.50;;;1.60;;
1336;SDS011;662;48.814;9.318;2022-11-20T14:29:27;1.57;;;1.30;;
1336;SDS011;662;48.814;9.318;2022-11-20T14:31:57;2.80;;;1.67;;
1336;SDS011;662;48.814;9.318;2022-11-20T14:34:30;1.63;;;1.23;;
1336;SDS011;662;48.814;9.318;2022-11-20T14:36:59;1.20;;;1.10;;
1336;SDS011;662;48.814;9.318;2022-11-20T14:39:36;3.27;;;1.50;;
1336;SDS011;662;48.814;9.318;2022-11-20T14:42:18;2.37;;;1.80;;
1336;SDS011;662;48.814;9.318;2022-11-20T14:44:46;1.87;;;1.50;;
1336;SDS011;662;48.814;9.318;2022-11-20T14:47:15;2.23;;;1.87;;
1336;SDS011;662;48.814;9.318;2022-11-20T14:49:45;2.30;;;2.03;;
1336;SDS011;662;48.814;9.318;2022-11-20T14:52:15;2.60;;;2.20;;
1336;SDS011;662;48.814;9.318;2022-11-20T14:54:46;3.93;;;2.53;;
1336;SDS011;662;48.814;9.318;2022-11-20T14:57:27;6.87;;;3.07;;
1336;SDS011;662;48.814;9.318;2022-11-20T15:02:41;5.30;;;1.77;;
1336;SDS011;662;48.814;9.318;2022-11-20T15:05:07;1.47;;;1.30;;
1336;SDS011;662;48.814;9.318;2022-11-20T15:07:34;1.70;;;1.60;;
1336;SDS011;662;48.814;9.318;2022-11-20T15:10:05;2.70;;;1.20;;
1336;SDS011;662;48.814;9.318;2022-11-20T15:12:46;2.40;;;1.60;;
1336;SDS011;662;48.814;9.318;2022-11-20T15:15:19;2.17;;;1.50;;
1336;SDS011;662;48.814;9.318;2022-11-20T15:17:50;2.50;;;1.50;;
1336;SDS011;662;48.814;9.318;2022-11-20T15:20:16;2.10;;;1.43;;
1336;SDS011;662;48.814;9.318;2022-11-20T15:22:42;3.40;;;1.80;;
1336;SDS011;662;48.814;9.318;2022-11-20T15:25:12;2.23;;;1.50;;
1336;SDS011;662;48.814;9.318;2022-11-20T15:27:38;2.57;;;1.60;;
1336;SDS011;662;48.814;9.318;2022-11-20T15:30:08;1.50;;;1.40;;
1336;SDS011;662;48.814;9.318;2022-11-20T15:32:42;1.60;;;1.50;;
1336;SDS011;662;48.814;9.318;2022-11-20T15:35:07;3.30;;;1.80;;
1336;SDS011;662;48.814;9.318;2022-11-20T15:37:34;4.60;;;3.90;;
1336;SDS011;662;48.814;9.318;2022-11-20T15:40:04;4.30;;;3.30;;
1336;SDS011;662;48.814;9.318;2022-11-20T15:42:31;3.70;;;2.80;;
1336;SDS011;662;48.814;9.318;2022-11-20T15:44:57;3.43;;;2.13;;
1336;SDS011;662;48.814;9.318;2022-11-20T15:47:24;5.20;;;2.73;;
1336;SDS011;662;48.814;9.318;2022-11-20T15:49:52;4.17;;;2.70;;
1336;SDS011;662;48.814;9.318;2022-11-20T15:52:18;2.30;;;1.80;;
1336;SDS011;662;48.814;9.318;2022-11-20T15:54:44;2.53;;;2.20;;
1336;SDS011;662;48.814;9.318;2022-11-20T15:57:09;2.03;;;1.73;;
1336;SDS011;662;48.814;9.318;2022-11-20T15:59:35;2.23;;;2.03;;
1336;SDS011;662;48.814;9.318;2022-11-20T16:02:14;4.10;;;2.97;;
1336;SDS011;662;48.814;9.318;2022-11-20T16:04:40;1.70;;;1.60;;
1336;SDS011;662;48.814;9.318;2022-11-20T16:07:06;3.87;;;2.67;;
1336;SDS011;662;48.814;9.318;2022-11-20T16:09:32;3.23;;;2.10;;
1336;SDS011;662;48.814;9.318;2022-11-20T16:11:58;3.87;;;2.57;;
1336;SDS011;662;48.814;9.318;2022-11-20T16:14:24;2.77;;;2.57;;
1336;SDS011;662;48.814;9.318;2022-11-20T16:17:09;3.77;;;2.83;;
1336;SDS011;662;48.814;9.318;2022-11-20T16:19:35;6.80;;;4.60;;
1336;SDS011;662;48.814;9.318;2022-11-20T16:22:00;4.37;;;3.10;;
1336;SDS011;662;48.814;9.318;2022-11-20T16:24:26;2.43;;;2.23;;
1336;SDS011;662;48.814;9.318;2022-11-20T16:26:55;3.40;;;2.93;;
1336;SDS011;662;48.814;9.318;2022-11-20T16:29:21;3.10;;;2.80;;
1336;SDS011;662;48.814;9.318;2022-11-20T16:31:47;4.07;;;3.10;;
1336;SDS011;662;48.814;9.318;2022-11-20T16:34:15;4.57;;;3.23;;
1336;SDS011;662;48.814;9.318;2022-11-20T16:36:42;4.10;;;2.40;;
1336;SDS011;662;48.814;9.318;2022-11-20T16:39:10;2.83;;;2.60;;
1336;SDS011;662;48.814;9.318;2022-11-20T16:41:36;3.00;;;2.20;;
1336;SDS011;662;48.814;9.318;2022-11-20T16:44:02;4.17;;;3.00;;
1336;SDS011;662;48.814;9.318;2022-11-20T16:46:32;3.63;;;2.37;;
1336;SDS011;662;48.814;9.318;2022-11-20T16:51:27;2.60;;;2.40;;
1336;SDS011;662;48.814;9.318;2022-11-20T16:53:54;2.30;;;2.03;;
1336;SDS011;662;48.814;9.318;2022-11-20T16:56:21;2.60;;;2.40;;
1336;SDS011;662;48.814;9.318;2022-11-20T16:58:50;2.93;;;2.63;;
1336;SDS011;662;48.814;9.318;2022-11-20T17:01:20;2.40;;;2.20;;
1336;SDS011;662;48.814;9.318;2022-11-20T17:03:52;3.60;;;2.60;;
1336;SDS011;662;48.814;9.318;2022-11-20T17:06:20;2.73;;;2.47;;
1336;SDS011;662;48.814;9.318;2022-11-20T17:08:47;2.10;;;2.00;;
1336;SDS011;662;48.814;9.318;2022-11-20T17:11:15;2.63;;;2.43;;
1336;SDS011;662;48.814;9.318;2022-11-20T17:13:42;2.83;;;2.57;;
1336;SDS011;662;48.814;9.318;2022-11-20T17:16:10;2.40;;;2.17;;
1336;SDS011;662;48.814;9.318;2022-11-20T17:18:37;3.10;;;2.70;;
1336;SDS011;662;48.814;9.318;2022-11-20T17:21:05;2.97;;;2.30;;